createdAt,value
2018-04-27T04:05:27.897Z,8.30
2018-04-27T04:07:57.787Z,8.30
2018-04-27T04:10:26.985Z,8.30
2018-04-27T04:12:55.777Z,8.30
2018-04-27T04:15:24.668Z,8.30
2018-04-27T04:17:53.705Z,8.40
2018-04-27T04:20:23.072Z,8.30
2018-04-27T04:22:52.217Z,8.40
2018-04-27T04:25:21.772Z,8.40
2018-04-27T04:27:50.932Z,8.40
2018-04-27T04:30:20.741Z,8.40
2018-04-27T04:32:50.595Z,8.50
2018-04-27T04:35:19.534Z,8.50
2018-04-27T04:37:48.995Z,8.50
2018-04-27T04:40:17.987Z,8.50
2018-04-27T04:42:47.753Z,8.60
2018-04-27T04:45:17.741Z,8.60
2018-04-27T04:47:47.541Z,8.60
2018-04-27T04:50:16.345Z,8.60
2018-04-27T04:52:45.429Z,8.70
2018-04-27T04:55:14.919Z,8.80
2018-04-27T04:57:43.825Z,8.80
2018-04-27T05:00:13.221Z,8.80
2018-04-27T05:02:42.509Z,8.90
2018-04-27T05:05:13.152Z,8.80
2018-04-27T05:07:43.124Z,8.90
2018-04-27T05:10:13.139Z,9.00
2018-04-27T05:12:42.181Z,8.90
2018-04-27T05:15:11.037Z,9.00
2018-04-27T05:17:40.583Z,9.00
2018-04-27T05:20:13.506Z,9.10
2018-04-27T05:29:01.012Z,9.30
2018-04-27T05:31:31.050Z,9.40
2018-04-27T05:33:59.548Z,9.40
2018-04-27T05:36:28.384Z,9.50
2018-04-27T05:38:57.208Z,9.50
2018-04-27T05:41:26.209Z,9.70
2018-04-27T05:43:54.061Z,9.70
2018-04-27T05:46:21.668Z,9.70
2018-04-27T05:48:50.539Z,9.80
2018-04-27T05:51:19.352Z,9.80
2018-04-27T05:53:47.877Z,9.80
2018-04-27T05:56:15.707Z,9.80
2018-04-27T05:58:44.660Z,9.80
2018-04-27T06:01:13.687Z,9.80
2018-04-27T06:03:53.641Z,9.90
2018-04-27T06:06:22.497Z,10.00
2018-04-27T06:08:51.324Z,10.00
2018-04-27T06:11:20.164Z,10.00
2018-04-27T06:13:49.024Z,10.10
2018-04-27T06:16:16.888Z,10.20
2018-04-27T06:18:45.960Z,10.30
2018-04-27T06:21:14.699Z,10.30
2018-04-27T06:23:43.478Z,10.20
2018-04-27T06:26:12.128Z,10.30
2018-04-27T06:28:49.111Z,10.30
2018-04-27T06:31:17.220Z,10.40
2018-04-27T06:33:46.783Z,10.60
2018-04-27T06:36:15.612Z,10.60
2018-04-27T06:38:44.525Z,10.80
2018-04-27T06:41:13.276Z,11.00
2018-04-27T06:43:41.149Z,11.10
2018-04-27T06:46:09.178Z,11.20
2018-04-27T06:48:37.929Z,11.20
2018-04-27T06:51:06.563Z,11.30
2018-04-27T06:53:35.417Z,11.30
2018-04-27T06:56:04.364Z,11.40
2018-04-27T06:58:32.349Z,11.40
2018-04-27T07:01:00.175Z,11.40
2018-04-27T07:03:28.027Z,11.30
2018-04-27T07:05:56.086Z,11.40
2018-04-27T07:08:24.362Z,11.50
2018-04-27T07:10:53.180Z,11.50
2018-04-27T07:13:21.286Z,11.50
2018-04-27T07:15:49.124Z,11.50
2018-04-27T07:18:17.884Z,11.60
2018-04-27T07:20:46.624Z,11.60
2018-04-27T07:23:15.435Z,11.60
2018-04-27T07:25:44.027Z,11.60
2018-04-27T07:28:13.997Z,11.60
2018-04-27T07:30:42.825Z,11.60
2018-04-27T07:33:11.677Z,11.70
2018-04-27T07:35:40.483Z,11.80
2018-04-27T07:38:08.345Z,11.90
2018-04-27T07:40:36.201Z,12.10
2018-04-27T07:43:04.027Z,12.20
2018-04-27T07:45:32.858Z,12.40
2018-04-27T07:48:00.706Z,12.40
2018-04-27T07:50:28.542Z,12.60
2018-04-27T07:52:57.763Z,12.80
2018-04-27T07:55:26.393Z,12.80
2018-04-27T07:57:54.387Z,12.90
2018-04-27T08:00:22.009Z,12.90
2018-04-27T08:02:50.213Z,13.10
2018-04-27T08:05:17.805Z,13.10
2018-04-27T08:07:45.683Z,13.20
2018-04-27T08:10:13.527Z,13.40
2018-04-27T08:12:42.171Z,13.40
2018-04-27T08:15:10.664Z,13.30
2018-04-27T08:17:40.887Z,13.50
2018-04-27T08:20:08.447Z,13.50
2018-04-27T08:22:38.344Z,13.50
2018-04-27T08:25:06.275Z,13.60
2018-04-27T08:27:34.485Z,13.60
2018-04-27T08:30:02.671Z,13.70
2018-04-27T08:32:30.739Z,13.70
2018-04-27T08:34:58.648Z,13.80
2018-04-27T08:37:27.381Z,13.80
2018-04-27T08:39:56.957Z,14.10
2018-04-27T08:42:25.500Z,14.20
2018-04-27T08:44:54.840Z,14.30
2018-04-27T08:47:23.451Z,14.50
2018-04-27T08:49:52.267Z,14.50
2018-04-27T08:52:20.151Z,14.90
2018-04-27T08:54:47.985Z,15.40
2018-04-27T08:57:16.031Z,15.90
2018-04-27T08:59:44.762Z,16.80
2018-04-27T09:02:13.555Z,16.80
2018-04-27T09:04:42.357Z,17.60
2018-04-27T09:07:10.882Z,17.60
2018-04-27T09:09:40.129Z,18.60
2018-04-27T09:12:08.923Z,18.60
2018-04-27T09:14:37.795Z,19.30
2018-04-27T09:17:06.380Z,19.90
2018-04-27T09:19:35.219Z,20.00
2018-04-27T09:22:04.692Z,20.10
2018-04-27T09:24:34.000Z,20.10
2018-04-27T09:27:03.714Z,20.40
2018-04-27T09:29:32.579Z,20.50
2018-04-27T09:32:01.597Z,20.80
2018-04-27T09:34:29.548Z,21.60
2018-04-27T09:36:58.360Z,22.00
2018-04-27T09:39:27.604Z,22.80
2018-04-27T09:41:56.334Z,23.40
2018-04-27T09:44:24.543Z,24.30
2018-04-27T09:46:53.355Z,25.20
2018-04-27T09:49:22.609Z,25.00
2018-04-27T09:51:51.172Z,25.00
2018-04-27T09:54:20.013Z,25.20
2018-04-27T09:56:48.891Z,24.90
2018-04-27T09:59:18.538Z,24.40
2018-04-27T10:01:47.504Z,25.00
2018-04-27T10:04:16.177Z,25.00
2018-04-27T10:06:45.535Z,24.30
2018-04-27T10:09:14.054Z,23.20
2018-04-27T10:11:42.880Z,22.20
2018-04-27T10:14:11.745Z,21.90
2018-04-27T10:16:40.482Z,21.50
2018-04-27T10:19:10.214Z,20.40
2018-04-27T10:21:39.147Z,20.40
2018-04-27T10:24:08.767Z,20.30
2018-04-27T10:26:38.518Z,20.00
2018-04-27T10:29:07.516Z,20.00
2018-04-27T10:31:36.392Z,19.70
2018-04-27T10:34:06.488Z,20.20
2018-04-27T10:36:35.408Z,20.20
2018-04-27T10:39:04.188Z,21.10
2018-04-27T10:41:33.811Z,21.40
2018-04-27T10:44:03.864Z,21.50
2018-04-27T10:46:32.386Z,21.50
2018-04-27T10:49:00.501Z,21.80
2018-04-27T10:51:29.033Z,21.60
2018-04-27T10:53:56.778Z,21.70
2018-04-27T10:56:25.472Z,22.60
2018-04-27T10:58:53.760Z,23.90
2018-04-27T11:01:22.320Z,23.90
2018-04-27T11:03:50.845Z,24.40
2018-04-27T11:06:19.546Z,23.50
2018-04-27T11:08:48.796Z,25.30
2018-04-27T11:11:16.634Z,25.20
2018-04-27T11:13:44.862Z,25.30
2018-04-27T11:16:12.730Z,25.90
2018-04-27T11:18:42.081Z,25.60
2018-04-27T11:21:09.901Z,25.50
2018-04-27T11:23:37.739Z,24.00
2018-04-27T11:26:05.645Z,24.70
2018-04-27T11:28:34.397Z,25.10
2018-04-27T11:31:02.964Z,25.70
2018-04-27T11:33:31.428Z,25.50
2018-04-27T11:36:00.072Z,22.50
2018-04-27T11:38:28.773Z,22.40
2018-04-27T11:40:57.243Z,21.80
2018-04-27T11:43:25.751Z,21.20
2018-04-27T11:45:54.675Z,22.80
2018-04-27T11:48:22.355Z,22.80
2018-04-27T11:50:50.376Z,23.20
2018-04-27T11:53:18.283Z,23.50
2018-04-27T11:55:46.013Z,23.90
2018-04-27T11:58:14.223Z,24.20
2018-04-27T12:00:41.821Z,24.50
2018-04-27T12:03:09.643Z,24.90
2018-04-27T12:05:37.573Z,25.00
2018-04-27T12:08:05.507Z,25.00
2018-04-27T12:10:33.367Z,25.20
2018-04-27T12:13:01.188Z,25.20
2018-04-27T12:15:29.348Z,25.20
2018-04-27T12:17:57.234Z,24.80
2018-04-27T12:20:25.372Z,23.80
2018-04-27T12:22:54.074Z,22.80
2018-04-27T12:25:22.472Z,22.20
2018-04-27T12:27:50.943Z,21.40
2018-04-27T12:30:19.091Z,21.10
2018-04-27T12:32:47.612Z,21.30
2018-04-27T12:35:16.103Z,21.00
2018-04-27T12:37:44.655Z,20.90
2018-04-27T12:40:12.462Z,20.90
2018-04-27T12:42:40.328Z,21.10
2018-04-27T12:45:08.958Z,20.80
2018-04-27T12:47:37.691Z,20.70
2018-04-27T12:50:05.694Z,20.90
2018-04-27T12:52:33.502Z,21.00
2018-04-27T12:55:01.319Z,20.70
2018-04-27T12:57:29.896Z,20.50
2018-04-27T12:59:59.129Z,20.00
2018-04-27T13:02:27.656Z,19.90
2018-04-27T13:04:56.148Z,19.80
2018-04-27T13:07:24.930Z,19.70
2018-04-27T13:09:52.745Z,19.70
2018-04-27T13:12:20.293Z,19.70
2018-04-27T13:14:48.433Z,19.80
2018-04-27T13:17:16.624Z,19.60
2018-04-27T13:19:45.121Z,19.70
2018-04-27T13:22:13.804Z,20.00
2018-04-27T13:24:43.277Z,19.50
2018-04-27T13:27:11.748Z,19.50
2018-04-27T13:29:40.302Z,19.20
2018-04-27T13:32:08.895Z,19.20
2018-04-27T13:34:37.392Z,19.10
2018-04-27T13:37:05.559Z,19.30
2018-04-27T13:39:34.050Z,18.90
2018-04-27T13:42:02.210Z,19.10
2018-04-27T13:44:30.712Z,19.10
2018-04-27T13:46:58.695Z,19.30
2018-04-27T13:49:27.407Z,19.50
2018-04-27T13:51:55.319Z,19.40
2018-04-27T13:54:23.437Z,19.40
2018-04-27T13:56:52.208Z,19.20
2018-04-27T13:59:20.041Z,19.20
2018-04-27T14:01:47.888Z,19.20
2018-04-27T14:04:15.755Z,19.30
2018-04-27T14:06:43.595Z,19.20
2018-04-27T14:09:11.406Z,19.20
2018-04-27T14:11:39.253Z,19.50
2018-04-27T14:14:07.823Z,20.10
2018-04-27T14:16:36.427Z,20.20
2018-04-27T14:19:04.271Z,20.20
2018-04-27T14:21:32.908Z,20.30
2018-04-27T14:24:02.099Z,20.40
2018-04-27T14:26:30.568Z,20.40
2018-04-27T14:28:59.066Z,20.50
2018-04-27T14:31:28.120Z,20.80
2018-04-27T14:33:57.366Z,20.60
2018-04-27T14:36:25.868Z,20.60
2018-04-27T14:38:54.391Z,20.30
2018-04-27T14:41:23.659Z,19.60
2018-04-27T14:43:52.168Z,19.60
2018-04-27T14:46:21.612Z,19.30
2018-04-27T14:48:50.110Z,19.30
2018-04-27T14:51:17.688Z,19.80
2018-04-27T14:53:46.422Z,20.10
2018-04-27T14:56:15.012Z,20.90
2018-04-27T14:58:42.885Z,20.80
2018-04-27T15:01:11.466Z,20.10
2018-04-27T15:03:39.997Z,20.10
2018-04-27T15:06:08.485Z,19.50
2018-04-27T15:08:36.709Z,19.40
2018-04-27T15:11:04.711Z,19.20
2018-04-27T15:13:32.498Z,18.80
2018-04-27T15:16:00.948Z,18.60
2018-04-27T15:18:29.680Z,18.60
2018-04-27T15:20:58.172Z,18.70
2018-04-27T15:23:26.720Z,18.80
2018-04-27T15:25:54.880Z,18.80
2018-04-27T15:28:22.699Z,18.50
2018-04-27T15:30:51.968Z,18.00
2018-04-27T15:33:21.206Z,17.70
2018-04-27T15:35:49.484Z,17.70
2018-04-27T15:38:18.016Z,17.50
2018-04-27T15:40:45.859Z,17.50
2018-04-27T15:43:13.714Z,17.50
2018-04-27T15:45:42.940Z,17.80
2018-04-27T15:48:10.807Z,17.80
2018-04-27T15:50:38.571Z,17.80
2018-04-27T15:53:06.416Z,17.70
2018-04-27T15:55:36.282Z,17.50
2018-04-27T15:58:04.759Z,17.50
2018-04-27T16:00:32.633Z,17.40
2018-04-27T16:03:00.461Z,17.30
2018-04-27T16:05:28.258Z,17.20
2018-04-27T16:07:56.090Z,17.30
2018-04-27T16:10:24.107Z,17.30
2018-04-27T16:12:51.941Z,17.40
2018-04-27T16:15:20.144Z,17.50
2018-04-27T16:17:47.922Z,17.40
2018-04-27T16:20:15.717Z,17.30
2018-04-27T16:22:43.589Z,17.00
2018-04-27T16:25:11.424Z,16.80
2018-04-27T16:27:41.038Z,16.60
2018-04-27T16:30:09.032Z,16.50
2018-04-27T16:32:37.217Z,16.20
2018-04-27T16:35:06.064Z,15.90
2018-04-27T16:37:34.283Z,15.90
2018-04-27T16:40:02.909Z,15.60
2018-04-27T16:42:31.890Z,15.60
2018-04-27T16:45:01.021Z,15.50
2018-04-27T16:47:30.495Z,15.50
2018-04-27T16:49:59.371Z,15.40
2018-04-27T16:52:28.212Z,15.30
2018-04-27T16:54:57.047Z,15.30
2018-04-27T16:57:25.080Z,15.20
2018-04-27T16:59:52.973Z,15.10
2018-04-27T17:02:21.558Z,15.00
2018-04-27T17:04:50.453Z,14.90
2018-04-27T17:07:19.432Z,14.90
2018-04-27T17:09:48.074Z,14.90
2018-04-27T17:12:16.720Z,14.90
2018-04-27T17:14:44.900Z,14.80
2018-04-27T17:17:12.924Z,14.80
2018-04-27T17:19:41.439Z,14.80
2018-04-27T17:22:09.376Z,14.70
2018-04-27T17:24:37.432Z,14.70
2018-04-27T17:27:05.972Z,14.50
2018-04-27T17:29:34.033Z,14.40
2018-04-27T17:32:02.849Z,14.10
2018-04-27T17:34:30.805Z,14.10
2018-04-27T17:36:59.056Z,13.90
2018-04-27T17:39:27.371Z,13.80
2018-04-27T17:41:55.336Z,13.60
2018-04-27T17:44:23.220Z,13.50
2018-04-27T17:46:51.195Z,13.40
2018-04-27T17:49:19.626Z,13.20
2018-04-27T17:51:49.104Z,13.00
2018-04-27T17:54:17.365Z,12.90
2018-04-27T17:56:46.186Z,12.80
2018-04-27T17:59:15.025Z,12.60
2018-04-27T18:01:44.923Z,12.30
2018-04-27T18:04:13.795Z,12.30
2018-04-27T18:06:42.008Z,12.10
2018-04-27T18:09:10.823Z,12.00
2018-04-27T18:11:39.717Z,11.90
2018-04-27T18:14:09.278Z,11.70
2018-04-27T18:16:37.475Z,11.70
2018-04-27T18:19:06.291Z,11.50
2018-04-27T18:21:34.866Z,11.50
2018-04-27T18:24:03.792Z,11.30
2018-04-27T18:26:31.881Z,11.20
2018-04-27T18:29:00.521Z,11.20
2018-04-27T18:31:29.556Z,11.10
2018-04-27T18:34:01.157Z,11.00
2018-04-27T18:36:30.091Z,10.80
2018-04-27T18:38:58.466Z,10.80
2018-04-27T18:41:27.048Z,10.70
2018-04-27T18:43:54.908Z,10.70
2018-04-27T18:46:23.441Z,10.60
2018-04-27T18:48:52.596Z,10.50
2018-04-27T18:51:20.439Z,10.40
2018-04-27T18:53:48.334Z,10.40
2018-04-27T18:56:18.111Z,10.30
2018-04-27T18:58:51.608Z,10.30
2018-04-27T19:01:20.438Z,10.20
2018-04-27T19:03:48.682Z,10.10
2018-04-27T19:06:16.723Z,10.10
2018-04-27T19:08:44.865Z,10.10
2018-04-27T19:11:12.983Z,10.00
2018-04-27T19:13:40.825Z,10.00
2018-04-27T19:16:08.669Z,9.90
2018-04-27T19:18:36.587Z,9.80
2018-04-27T19:21:05.151Z,9.70
2018-04-27T19:23:39.047Z,9.70
2018-04-27T19:26:25.423Z,9.70
2018-04-27T19:28:53.464Z,9.70
2018-04-27T19:31:21.278Z,9.50
2018-04-27T19:33:49.096Z,9.50
2018-04-27T19:36:16.983Z,9.40
2018-04-27T19:38:45.140Z,9.50
2018-04-27T19:41:13.183Z,9.40
2018-04-27T19:43:42.025Z,9.30
2018-04-27T19:46:09.875Z,9.30
2018-04-27T19:48:37.725Z,9.30
2018-04-27T19:51:05.751Z,9.30
2018-04-27T19:53:34.010Z,9.20
2018-04-27T19:56:02.061Z,9.20
2018-04-27T19:58:30.085Z,9.10
2018-04-27T20:00:57.969Z,9.20
2018-04-27T20:03:26.207Z,9.20
2018-04-27T20:05:54.167Z,9.10
2018-04-27T20:08:22.075Z,9.10
2018-04-27T20:10:50.313Z,9.00
2018-04-27T20:13:19.714Z,9.00
2018-04-27T20:15:48.520Z,8.90
2018-04-27T20:18:17.155Z,8.80
2018-04-27T20:20:45.957Z,8.80
2018-04-27T20:23:14.776Z,8.90
2018-04-27T20:25:43.506Z,8.90
2018-04-27T20:28:11.604Z,8.90
2018-04-27T20:30:40.142Z,8.80
2018-04-27T20:33:09.971Z,8.70
2018-04-27T20:35:38.596Z,8.60
2018-04-27T20:38:25.206Z,8.60
2018-04-27T20:40:53.184Z,8.60
2018-04-27T20:43:24.937Z,8.50
2018-04-27T20:45:55.802Z,8.40
2018-04-27T20:48:26.329Z,8.50
2018-04-27T20:50:57.038Z,8.50
2018-04-27T20:53:24.868Z,8.50
2018-04-27T20:55:53.560Z,8.60
2018-04-27T20:58:21.165Z,8.50
2018-04-27T21:00:48.843Z,8.50
2018-04-27T21:03:16.896Z,8.50
2018-04-27T21:05:44.788Z,8.40
2018-04-27T21:08:13.510Z,8.40
2018-04-27T21:10:41.339Z,8.30
2018-04-27T21:13:09.492Z,8.30
2018-04-27T21:15:38.087Z,8.40
2018-04-27T21:18:06.009Z,8.40
2018-04-27T21:20:33.855Z,8.40
2018-04-27T21:23:02.365Z,8.40
2018-04-27T21:25:31.474Z,8.50
2018-04-27T21:28:00.367Z,8.30
2018-04-27T21:30:28.999Z,8.30
2018-04-27T21:33:02.762Z,8.30
2018-04-27T21:35:35.565Z,8.20
2018-04-27T21:38:06.696Z,8.20
2018-04-27T21:40:34.915Z,8.20
2018-04-27T21:43:03.304Z,8.20
2018-04-27T21:45:31.441Z,8.20
2018-04-27T21:48:00.658Z,8.20
2018-04-27T21:50:28.603Z,8.20
2018-04-27T21:52:56.542Z,8.20
2018-04-27T21:55:24.697Z,8.20
2018-04-27T21:57:54.297Z,8.20
